sensor_id;sensor_type;location;lat;lon;timestamp;temperature;humidity
15359;DHT22;7779;49.596;11.070;2024-02-23T00:01:50;11.70;69.80
15359;DHT22;7779;49.596;11.070;2024-02-23T00:04:17;11.70;69.60
15359;DHT22;7779;49.596;11.070;2024-02-23T00:06:44;11.60;69.60
15359;DHT22;7779;49.596;11.070;2024-02-23T00:09:10;11.70;69.70
15359;DHT22;7779;49.596;11.070;2024-02-23T00:11:39;11.60;69.60
15359;DHT22;7779;49.596;11.070;2024-02-23T00:14:10;11.60;69.40
15359;DHT22;7779;49.596;11.070;2024-02-23T00:16:39;11.60;69.60
15359;DHT22;7779;49.596;11.070;2024-02-23T00:19:09;11.60;69.30
15359;DHT22;7779;49.596;11.070;2024-02-23T00:21:36;11.60;69.20
15359;DHT22;7779;49.596;11.070;2024-02-23T00:24:06;11.50;69.10
15359;DHT22;7779;49.596;11.070;2024-02-23T00:26:31;11.50;69.00
15359;DHT22;7779;49.596;11.070;2024-02-23T00:28:57;11.50;68.80
15359;DHT22;7779;49.596;11.070;2024-02-23T00:31:23;11.50;68.70
15359;DHT22;7779;49.596;11.070;2024-02-23T00:33:49;11.50;68.60
15359;DHT22;7779;49.596;11.070;2024-02-23T00:36:15;11.50;68.40
15359;DHT22;7779;49.596;11.070;2024-02-23T00:38:40;11.40;68.30
15359;DHT22;7779;49.596;11.070;2024-02-23T00:41:06;11.40;68.20
15359;DHT22;7779;49.596;11.070;2024-02-23T00:43:41;11.40;68.10
15359;DHT22;7779;49.596;11.070;2024-02-23T00:46:08;11.40;67.20
15359;DHT22;7779;49.596;11.070;2024-02-23T00:48:34;11.30;68.30
15359;DHT22;7779;49.596;11.070;2024-02-23T00:51:02;11.30;67.70
15359;DHT22;7779;49.596;11.070;2024-02-23T00:53:30;11.30;67.70
15359;DHT22;7779;49.596;11.070;2024-02-23T00:55:56;11.20;67.50
15359;DHT22;7779;49.596;11.070;2024-02-23T00:58:21;11.20;67.40
15359;DHT22;7779;49.596;11.070;2024-02-23T01:00:47;11.20;67.40
15359;DHT22;7779;49.596;11.070;2024-02-23T01:03:13;11.20;67.10
15359;DHT22;7779;49.596;11.070;2024-02-23T01:05:38;11.10;67.00
15359;DHT22;7779;49.596;11.070;2024-02-23T01:08:05;11.10;67.00
15359;DHT22;7779;49.596;11.070;2024-02-23T01:10:31;11.00;66.70
15359;DHT22;7779;49.596;11.070;2024-02-23T01:12:57;11.00;66.70
15359;DHT22;7779;49.596;11.070;2024-02-23T01:15:23;11.00;66.70
15359;DHT22;7779;49.596;11.070;2024-02-23T01:17:48;10.90;66.40
15359;DHT22;7779;49.596;11.070;2024-02-23T01:20:14;10.90;66.50
15359;DHT22;7779;49.596;11.070;2024-02-23T01:22:40;10.80;66.40
15359;DHT22;7779;49.596;11.070;2024-02-23T01:25:06;10.80;66.30
15359;DHT22;7779;49.596;11.070;2024-02-23T01:27:31;10.70;66.40
15359;DHT22;7779;49.596;11.070;2024-02-23T01:29:57;10.70;66.30
15359;DHT22;7779;49.596;11.070;2024-02-23T01:32:23;10.70;66.40
15359;DHT22;7779;49.596;11.070;2024-02-23T01:34:48;10.60;66.10
15359;DHT22;7779;49.596;11.070;2024-02-23T01:37:14;10.60;66.20
15359;DHT22;7779;49.596;11.070;2024-02-23T01:39:40;10.50;66.00
15359;DHT22;7779;49.596;11.070;2024-02-23T01:42:05;10.50;66.00
15359;DHT22;7779;49.596;11.070;2024-02-23T01:44:31;10.40;65.90
15359;DHT22;7779;49.596;11.070;2024-02-23T01:46:57;10.40;65.90
15359;DHT22;7779;49.596;11.070;2024-02-23T01:49:23;10.40;65.90
15359;DHT22;7779;49.596;11.070;2024-02-23T01:51:56;10.30;65.70
15359;DHT22;7779;49.596;11.070;2024-02-23T01:54:22;10.20;65.70
15359;DHT22;7779;49.596;11.070;2024-02-23T01:56:49;10.20;65.60
15359;DHT22;7779;49.596;11.070;2024-02-23T01:59:15;10.20;65.50
15359;DHT22;7779;49.596;11.070;2024-02-23T02:01:43;10.10;65.60
15359;DHT22;7779;49.596;11.070;2024-02-23T02:04:09;10.10;65.50
15359;DHT22;7779;49.596;11.070;2024-02-23T02:06:35;10.00;65.50
15359;DHT22;7779;49.596;11.070;2024-02-23T02:09:02;10.00;65.50
15359;DHT22;7779;49.596;11.070;2024-02-23T02:11:28;9.90;66.50
15359;DHT22;7779;49.596;11.070;2024-02-23T02:13:54;9.90;66.40
15359;DHT22;7779;49.596;11.070;2024-02-23T02:16:19;9.80;66.50
15359;DHT22;7779;49.596;11.070;2024-02-23T02:18:45;9.80;66.60
15359;DHT22;7779;49.596;11.070;2024-02-23T02:21:11;9.80;66.60
15359;DHT22;7779;49.596;11.070;2024-02-23T02:23:37;9.70;66.60
15359;DHT22;7779;49.596;11.070;2024-02-23T02:26:03;9.70;66.70
15359;DHT22;7779;49.596;11.070;2024-02-23T02:28:29;9.70;66.70
15359;DHT22;7779;49.596;11.070;2024-02-23T02:30:55;9.60;66.60
15359;DHT22;7779;49.596;11.070;2024-02-23T02:33:22;9.60;66.80
15359;DHT22;7779;49.596;11.070;2024-02-23T02:35:48;9.60;66.80
15359;DHT22;7779;49.596;11.070;2024-02-23T02:38:15;9.60;66.90
15359;DHT22;7779;49.596;11.070;2024-02-23T02:40:41;9.50;66.80
15359;DHT22;7779;49.596;11.070;2024-02-23T02:43:07;9.50;66.90
15359;DHT22;7779;49.596;11.070;2024-02-23T02:45:33;9.50;66.90
15359;DHT22;7779;49.596;11.070;2024-02-23T02:48:03;9.50;66.90
15359;DHT22;7779;49.596;11.070;2024-02-23T02:50:29;9.50;66.60
15359;DHT22;7779;49.596;11.070;2024-02-23T02:52:54;9.40;66.70
15359;DHT22;7779;49.596;11.070;2024-02-23T02:55:20;9.40;66.80
15359;DHT22;7779;49.596;11.070;2024-02-23T02:57:46;9.40;66.70
15359;DHT22;7779;49.596;11.070;2024-02-23T03:00:12;9.40;66.80
15359;DHT22;7779;49.596;11.070;2024-02-23T03:02:38;9.40;66.80
15359;DHT22;7779;49.596;11.070;2024-02-23T03:05:04;9.40;66.70
15359;DHT22;7779;49.596;11.070;2024-02-23T03:07:30;9.40;66.60
15359;DHT22;7779;49.596;11.070;2024-02-23T03:09:56;9.40;66.70
15359;DHT22;7779;49.596;11.070;2024-02-23T03:12:22;9.40;66.60
15359;DHT22;7779;49.596;11.070;2024-02-23T03:14:47;9.40;66.60
15359;DHT22;7779;49.596;11.070;2024-02-23T03:17:13;9.40;66.60
15359;DHT22;7779;49.596;11.070;2024-02-23T03:19:39;9.30;66.40
15359;DHT22;7779;49.596;11.070;2024-02-23T03:22:05;9.30;66.10
15359;DHT22;7779;49.596;11.070;2024-02-23T03:24:30;9.30;66.10
15359;DHT22;7779;49.596;11.070;2024-02-23T03:26:56;9.30;65.90
15359;DHT22;7779;49.596;11.070;2024-02-23T03:29:22;9.20;65.80
15359;DHT22;7779;49.596;11.070;2024-02-23T03:31:55;9.20;65.70
15359;DHT22;7779;49.596;11.070;2024-02-23T03:34:21;9.10;65.70
15359;DHT22;7779;49.596;11.070;2024-02-23T03:36:47;9.10;65.50
15359;DHT22;7779;49.596;11.070;2024-02-23T03:39:13;9.10;65.60
15359;DHT22;7779;49.596;11.070;2024-02-23T03:41:39;9.00;65.60
15359;DHT22;7779;49.596;11.070;2024-02-23T03:44:05;9.00;65.70
15359;DHT22;7779;49.596;11.070;2024-02-23T03:46:30;9.00;65.70
15359;DHT22;7779;49.596;11.070;2024-02-23T03:48:56;9.00;65.90
15359;DHT22;7779;49.596;11.070;2024-02-23T03:51:23;9.00;65.90
15359;DHT22;7779;49.596;11.070;2024-02-23T03:53:49;8.90;65.80
15359;DHT22;7779;49.596;11.070;2024-02-23T03:56:15;8.90;65.70
15359;DHT22;7779;49.596;11.070;2024-02-23T03:58:41;8.90;65.80
15359;DHT22;7779;49.596;11.070;2024-02-23T04:01:07;8.90;65.80
15359;DHT22;7779;49.596;11.070;2024-02-23T04:03:33;8.90;65.70
15359;DHT22;7779;49.596;11.070;2024-02-23T04:05:58;8.80;65.60
15359;DHT22;7779;49.596;11.070;2024-02-23T04:08:24;8.90;65.70
15359;DHT22;7779;49.596;11.070;2024-02-23T04:10:50;8.80;64.20
15359;DHT22;7779;49.596;11.070;2024-02-23T04:13:15;8.80;65.60
15359;DHT22;7779;49.596;11.070;2024-02-23T04:15:43;8.80;65.60
15359;DHT22;7779;49.596;11.070;2024-02-23T04:18:09;8.80;65.60
15359;DHT22;7779;49.596;11.070;2024-02-23T04:20:35;8.80;65.60
15359;DHT22;7779;49.596;11.070;2024-02-23T04:23:00;8.80;65.70
15359;DHT22;7779;49.596;11.070;2024-02-23T04:25:26;8.80;65.70
15359;DHT22;7779;49.596;11.070;2024-02-23T04:27:52;8.70;65.60
15359;DHT22;7779;49.596;11.070;2024-02-23T04:30:18;8.70;65.60
15359;DHT22;7779;49.596;11.070;2024-02-23T04:32:43;8.80;65.60
15359;DHT22;7779;49.596;11.070;2024-02-23T04:35:10;8.70;65.60
15359;DHT22;7779;49.596;11.070;2024-02-23T04:37:35;8.70;65.50
15359;DHT22;7779;49.596;11.070;2024-02-23T04:40:01;8.70;65.60
15359;DHT22;7779;49.596;11.070;2024-02-23T04:42:27;8.70;65.50
15359;DHT22;7779;49.596;11.070;2024-02-23T04:44:53;8.70;65.50
15359;DHT22;7779;49.596;11.070;2024-02-23T04:47:20;8.70;65.50
15359;DHT22;7779;49.596;11.070;2024-02-23T04:49:46;8.70;65.50
15359;DHT22;7779;49.596;11.070;2024-02-23T04:52:12;8.70;65.40
15359;DHT22;7779;49.596;11.070;2024-02-23T04:54:37;8.70;65.40
15359;DHT22;7779;49.596;11.070;2024-02-23T04:57:03;8.70;65.30
15359;DHT22;7779;49.596;11.070;2024-02-23T04:59:29;8.70;65.40
15359;DHT22;7779;49.596;11.070;2024-02-23T05:01:57;8.60;65.30
15359;DHT22;7779;49.596;11.070;2024-02-23T05:04:23;8.60;65.30
15359;DHT22;7779;49.596;11.070;2024-02-23T05:06:49;8.60;64.10
15359;DHT22;7779;49.596;11.070;2024-02-23T05:09:14;8.60;65.30
15359;DHT22;7779;49.596;11.070;2024-02-23T05:11:49;8.70;65.40
15359;DHT22;7779;49.596;11.070;2024-02-23T05:14:14;8.60;65.20
15359;DHT22;7779;49.596;11.070;2024-02-23T05:16:40;8.60;65.20
15359;DHT22;7779;49.596;11.070;2024-02-23T05:19:06;8.60;65.20
15359;DHT22;7779;49.596;11.070;2024-02-23T05:21:32;8.60;65.10
15359;DHT22;7779;49.596;11.070;2024-02-23T05:23:57;8.60;65.20
15359;DHT22;7779;49.596;11.070;2024-02-23T05:26:23;8.60;65.10
15359;DHT22;7779;49.596;11.070;2024-02-23T05:28:49;8.60;65.00
15359;DHT22;7779;49.596;11.070;2024-02-23T05:31:14;8.60;65.10
15359;DHT22;7779;49.596;11.070;2024-02-23T05:33:40;8.60;65.10
15359;DHT22;7779;49.596;11.070;2024-02-23T05:36:07;8.60;65.10
15359;DHT22;7779;49.596;11.070;2024-02-23T05:38:33;8.60;65.00
15359;DHT22;7779;49.596;11.070;2024-02-23T05:40:58;8.60;65.00
15359;DHT22;7779;49.596;11.070;2024-02-23T05:43:24;8.60;65.00
15359;DHT22;7779;49.596;11.070;2024-02-23T05:45:50;8.50;64.90
15359;DHT22;7779;49.596;11.070;2024-02-23T05:48:15;8.60;65.00
15359;DHT22;7779;49.596;11.070;2024-02-23T05:50:41;8.50;64.80
15359;DHT22;7779;49.596;11.070;2024-02-23T05:53:07;8.50;64.90
15359;DHT22;7779;49.596;11.070;2024-02-23T05:55:33;8.50;64.90
15359;DHT22;7779;49.596;11.070;2024-02-23T05:57:59;8.50;64.80
15359;DHT22;7779;49.596;11.070;2024-02-23T06:00:24;8.50;64.90
15359;DHT22;7779;49.596;11.070;2024-02-23T06:02:50;8.50;64.80
15359;DHT22;7779;49.596;11.070;2024-02-23T06:05:16;8.50;64.70
15359;DHT22;7779;49.596;11.070;2024-02-23T06:07:42;8.50;64.70
15359;DHT22;7779;49.596;11.070;2024-02-23T06:10:07;8.50;64.60
15359;DHT22;7779;49.596;11.070;2024-02-23T06:12:33;8.50;64.70
15359;DHT22;7779;49.596;11.070;2024-02-23T06:14:59;8.40;63.60
15359;DHT22;7779;49.596;11.070;2024-02-23T06:17:25;8.40;64.60
15359;DHT22;7779;49.596;11.070;2024-02-23T06:19:50;8.40;64.70
15359;DHT22;7779;49.596;11.070;2024-02-23T06:22:18;8.40;64.60
15359;DHT22;7779;49.596;11.070;2024-02-23T06:24:47;8.40;64.60
15359;DHT22;7779;49.596;11.070;2024-02-23T06:27:13;8.30;64.40
15359;DHT22;7779;49.596;11.070;2024-02-23T06:29:39;8.30;64.40
15359;DHT22;7779;49.596;11.070;2024-02-23T06:32:05;8.20;64.40
15359;DHT22;7779;49.596;11.070;2024-02-23T06:34:31;8.20;64.40
15359;DHT22;7779;49.596;11.070;2024-02-23T06:36:57;8.20;64.50
15359;DHT22;7779;49.596;11.070;2024-02-23T06:39:22;8.20;64.60
15359;DHT22;7779;49.596;11.070;2024-02-23T06:41:48;8.10;64.40
15359;DHT22;7779;49.596;11.070;2024-02-23T06:44:14;8.10;64.50
15359;DHT22;7779;49.596;11.070;2024-02-23T06:46:40;8.10;64.50
15359;DHT22;7779;49.596;11.070;2024-02-23T06:49:07;8.10;64.60
15359;DHT22;7779;49.596;11.070;2024-02-23T06:51:33;8.10;64.50
15359;DHT22;7779;49.596;11.070;2024-02-23T06:53:58;8.00;64.50
15359;DHT22;7779;49.596;11.070;2024-02-23T06:56:24;8.00;64.50
15359;DHT22;7779;49.596;11.070;2024-02-23T06:58:50;8.00;64.60
15359;DHT22;7779;49.596;11.070;2024-02-23T07:01:15;8.00;64.60
15359;DHT22;7779;49.596;11.070;2024-02-23T07:03:41;7.90;64.50
15359;DHT22;7779;49.596;11.070;2024-02-23T07:06:09;7.90;64.60
15359;DHT22;7779;49.596;11.070;2024-02-23T07:08:36;7.90;64.70
15359;DHT22;7779;49.596;11.070;2024-02-23T07:11:02;7.90;64.80
15359;DHT22;7779;49.596;11.070;2024-02-23T07:13:28;7.90;64.90
15359;DHT22;7779;49.596;11.070;2024-02-23T07:15:53;7.90;64.90
15359;DHT22;7779;49.596;11.070;2024-02-23T07:18:21;7.90;64.90
15359;DHT22;7779;49.596;11.070;2024-02-23T07:20:47;7.90;65.00
15359;DHT22;7779;49.596;11.070;2024-02-23T07:23:13;7.80;64.90
15359;DHT22;7779;49.596;11.070;2024-02-23T07:25:41;7.90;65.00
15359;DHT22;7779;49.596;11.070;2024-02-23T07:28:07;7.90;65.20
15359;DHT22;7779;49.596;11.070;2024-02-23T07:30:33;7.90;65.20
15359;DHT22;7779;49.596;11.070;2024-02-23T07:33:00;7.90;65.20
15359;DHT22;7779;49.596;11.070;2024-02-23T07:35:26;7.90;65.20
15359;DHT22;7779;49.596;11.070;2024-02-23T07:37:52;8.00;65.30
15359;DHT22;7779;49.596;11.070;2024-02-23T07:40:17;8.00;65.30
15359;DHT22;7779;49.596;11.070;2024-02-23T07:42:43;8.00;65.20
15359;DHT22;7779;49.596;11.070;2024-02-23T07:45:09;8.00;64.10
15359;DHT22;7779;49.596;11.070;2024-02-23T07:47:36;8.10;65.40
15359;DHT22;7779;49.596;11.070;2024-02-23T07:50:03;8.10;65.40
15359;DHT22;7779;49.596;11.070;2024-02-23T07:52:28;8.10;65.30
15359;DHT22;7779;49.596;11.070;2024-02-23T07:54:54;8.20;65.40
15359;DHT22;7779;49.596;11.070;2024-02-23T07:57:20;8.20;65.40
15359;DHT22;7779;49.596;11.070;2024-02-23T07:59:47;8.20;65.30
15359;DHT22;7779;49.596;11.070;2024-02-23T08:02:14;8.20;65.20
15359;DHT22;7779;49.596;11.070;2024-02-23T08:04:41;8.30;65.10
15359;DHT22;7779;49.596;11.070;2024-02-23T08:07:07;8.30;65.00
15359;DHT22;7779;49.596;11.070;2024-02-23T08:09:33;8.30;65.00
15359;DHT22;7779;49.596;11.070;2024-02-23T08:11:59;8.40;65.10
15359;DHT22;7779;49.596;11.070;2024-02-23T08:14:25;8.40;65.10
15359;DHT22;7779;49.596;11.070;2024-02-23T08:16:50;8.40;65.00
15359;DHT22;7779;49.596;11.070;2024-02-23T08:19:16;8.40;65.00
15359;DHT22;7779;49.596;11.070;2024-02-23T08:21:42;8.50;65.00
15359;DHT22;7779;49.596;11.070;2024-02-23T08:24:09;8.50;65.00
15359;DHT22;7779;49.596;11.070;2024-02-23T08:26:35;8.50;64.90
15359;DHT22;7779;49.596;11.070;2024-02-23T08:29:06;8.60;65.00
15359;DHT22;7779;49.596;11.070;2024-02-23T08:31:32;8.60;64.90
15359;DHT22;7779;49.596;11.070;2024-02-23T08:33:57;8.60;64.70
15359;DHT22;7779;49.596;11.070;2024-02-23T08:36:23;8.60;63.00
15359;DHT22;7779;49.596;11.070;2024-02-23T08:38:49;8.70;64.80
15359;DHT22;7779;49.596;11.070;2024-02-23T08:41:14;8.70;64.70
15359;DHT22;7779;49.596;11.070;2024-02-23T08:43:40;8.70;64.50
15359;DHT22;7779;49.596;11.070;2024-02-23T08:46:06;8.70;64.20
15359;DHT22;7779;49.596;11.070;2024-02-23T08:48:32;8.80;64.40
15359;DHT22;7779;49.596;11.070;2024-02-23T08:50:57;8.80;64.20
15359;DHT22;7779;49.596;11.070;2024-02-23T08:53:23;8.80;64.80
15359;DHT22;7779;49.596;11.070;2024-02-23T08:55:49;8.90;64.00
15359;DHT22;7779;49.596;11.070;2024-02-23T08:58:14;8.90;63.90
15359;DHT22;7779;49.596;11.070;2024-02-23T09:00:41;9.00;64.00
15359;DHT22;7779;49.596;11.070;2024-02-23T09:03:06;9.00;63.80
15359;DHT22;7779;49.596;11.070;2024-02-23T09:05:32;9.10;63.90
15359;DHT22;7779;49.596;11.070;2024-02-23T09:07:58;9.10;63.80
15359;DHT22;7779;49.596;11.070;2024-02-23T09:10:23;9.20;63.70
15359;DHT22;7779;49.596;11.070;2024-02-23T09:12:49;9.30;63.60
15359;DHT22;7779;49.596;11.070;2024-02-23T09:15:15;9.30;63.30
15359;DHT22;7779;49.596;11.070;2024-02-23T09:17:41;9.40;63.20
15359;DHT22;7779;49.596;11.070;2024-02-23T09:20:07;9.40;63.00
15359;DHT22;7779;49.596;11.070;2024-02-23T09:22:33;9.50;62.90
15359;DHT22;7779;49.596;11.070;2024-02-23T09:24:59;9.50;61.40
15359;DHT22;7779;49.596;11.070;2024-02-23T09:27:25;9.50;62.70
15359;DHT22;7779;49.596;11.070;2024-02-23T09:29:52;9.50;62.50
15359;DHT22;7779;49.596;11.070;2024-02-23T09:32:17;9.60;62.70
15359;DHT22;7779;49.596;11.070;2024-02-23T09:34:43;9.60;62.60
15359;DHT22;7779;49.596;11.070;2024-02-23T09:37:09;9.60;62.50
15359;DHT22;7779;49.596;11.070;2024-02-23T09:39:35;9.60;62.50
15359;DHT22;7779;49.596;11.070;2024-02-23T09:42:01;9.70;62.50
15359;DHT22;7779;49.596;11.070;2024-02-23T09:44:34;9.70;62.40
15359;DHT22;7779;49.596;11.070;2024-02-23T09:47:02;9.70;62.00
15359;DHT22;7779;49.596;11.070;2024-02-23T09:49:40;9.70;62.20
15359;DHT22;7779;49.596;11.070;2024-02-23T09:52:09;9.70;61.90
15359;DHT22;7779;49.596;11.070;2024-02-23T09:54:37;9.70;62.00
15359;DHT22;7779;49.596;11.070;2024-02-23T09:57:09;9.60;62.10
15359;DHT22;7779;49.596;11.070;2024-02-23T09:59:35;9.60;62.20
15359;DHT22;7779;49.596;11.070;2024-02-23T10:02:08;9.60;62.60
15359;DHT22;7779;49.596;11.070;2024-02-23T10:04:39;9.70;63.50
15359;DHT22;7779;49.596;11.070;2024-02-23T10:07:06;9.70;62.90
15359;DHT22;7779;49.596;11.070;2024-02-23T10:09:32;9.70;63.10
15359;DHT22;7779;49.596;11.070;2024-02-23T10:11:58;9.70;63.10
15359;DHT22;7779;49.596;11.070;2024-02-23T10:14:24;9.80;63.20
15359;DHT22;7779;49.596;11.070;2024-02-23T10:16:50;9.80;63.10
15359;DHT22;7779;49.596;11.070;2024-02-23T10:19:19;9.90;63.00
15359;DHT22;7779;49.596;11.070;2024-02-23T10:21:45;9.80;62.80
15359;DHT22;7779;49.596;11.070;2024-02-23T10:24:11;9.80;62.70
15359;DHT22;7779;49.596;11.070;2024-02-23T10:26:37;9.80;62.70
15359;DHT22;7779;49.596;11.070;2024-02-23T10:29:03;9.80;62.50
15359;DHT22;7779;49.596;11.070;2024-02-23T10:31:33;9.80;62.50
15359;DHT22;7779;49.596;11.070;2024-02-23T10:34:09;9.90;62.30
15359;DHT22;7779;49.596;11.070;2024-02-23T10:36:42;9.80;62.10
15359;DHT22;7779;49.596;11.070;2024-02-23T10:39:08;9.90;62.30
15359;DHT22;7779;49.596;11.070;2024-02-23T10:41:35;9.90;62.20
15359;DHT22;7779;49.596;11.070;2024-02-23T10:44:03;9.90;62.30
15359;DHT22;7779;49.596;11.070;2024-02-23T10:46:31;9.90;62.10
15359;DHT22;7779;49.596;11.070;2024-02-23T10:48:58;9.90;62.10
15359;DHT22;7779;49.596;11.070;2024-02-23T10:51:28;10.00;60.90
15359;DHT22;7779;49.596;11.070;2024-02-23T10:53:55;10.00;61.10
15359;DHT22;7779;49.596;11.070;2024-02-23T10:56:21;10.00;60.90
15359;DHT22;7779;49.596;11.070;2024-02-23T10:58:48;10.00;60.80
15359;DHT22;7779;49.596;11.070;2024-02-23T11:01:14;10.00;60.70
15359;DHT22;7779;49.596;11.070;2024-02-23T11:03:43;10.00;60.50
15359;DHT22;7779;49.596;11.070;2024-02-23T11:06:13;10.00;60.50
15359;DHT22;7779;49.596;11.070;2024-02-23T11:08:39;10.10;60.40
15359;DHT22;7779;49.596;11.070;2024-02-23T11:11:09;10.10;60.50
15359;DHT22;7779;49.596;11.070;2024-02-23T11:13:37;10.10;60.10
15359;DHT22;7779;49.596;11.070;2024-02-23T11:16:07;10.20;60.40
15359;DHT22;7779;49.596;11.070;2024-02-23T11:18:38;10.20;60.10
15359;DHT22;7779;49.596;11.070;2024-02-23T11:21:05;10.20;60.30
15359;DHT22;7779;49.596;11.070;2024-02-23T11:23:42;10.20;60.30
15359;DHT22;7779;49.596;11.070;2024-02-23T11:26:10;10.30;59.60
15359;DHT22;7779;49.596;11.070;2024-02-23T11:28:51;10.30;60.00
15359;DHT22;7779;49.596;11.070;2024-02-23T11:31:22;10.30;59.00
15359;DHT22;7779;49.596;11.070;2024-02-23T11:33:50;10.30;59.50
15359;DHT22;7779;49.596;11.070;2024-02-23T11:36:34;10.40;60.30
15359;DHT22;7779;49.596;11.070;2024-02-23T11:39:02;10.40;59.10
15359;DHT22;7779;49.596;11.070;2024-02-23T11:41:28;10.40;59.50
15359;DHT22;7779;49.596;11.070;2024-02-23T11:43:55;10.40;59.40
15359;DHT22;7779;49.596;11.070;2024-02-23T11:46:22;10.40;59.40
15359;DHT22;7779;49.596;11.070;2024-02-23T11:48:48;10.40;59.30
15359;DHT22;7779;49.596;11.070;2024-02-23T11:51:21;10.40;59.20
15359;DHT22;7779;49.596;11.070;2024-02-23T11:53:48;10.40;59.20
15359;DHT22;7779;49.596;11.070;2024-02-23T11:56:15;10.40;59.20
15359;DHT22;7779;49.596;11.070;2024-02-23T11:58:41;10.40;59.20
15359;DHT22;7779;49.596;11.070;2024-02-23T12:01:07;10.50;59.20
15359;DHT22;7779;49.596;11.070;2024-02-23T12:03:33;10.50;59.20
15359;DHT22;7779;49.596;11.070;2024-02-23T12:06:00;10.50;59.10
15359;DHT22;7779;49.596;11.070;2024-02-23T12:08:27;10.50;59.10
15359;DHT22;7779;49.596;11.070;2024-02-23T12:10:55;10.50;59.10
15359;DHT22;7779;49.596;11.070;2024-02-23T12:13:22;10.60;59.10
15359;DHT22;7779;49.596;11.070;2024-02-23T12:15:51;10.60;59.20
15359;DHT22;7779;49.596;11.070;2024-02-23T12:18:18;10.60;59.10
15359;DHT22;7779;49.596;11.070;2024-02-23T12:20:52;10.60;59.20
15359;DHT22;7779;49.596;11.070;2024-02-23T12:23:18;10.60;59.20
15359;DHT22;7779;49.596;11.070;2024-02-23T12:25:54;10.70;59.20
15359;DHT22;7779;49.596;11.070;2024-02-23T12:28:22;10.70;58.60
15359;DHT22;7779;49.596;11.070;2024-02-23T12:30:59;10.70;59.10
15359;DHT22;7779;49.596;11.070;2024-02-23T12:33:37;10.70;58.40
15359;DHT22;7779;49.596;11.070;2024-02-23T12:36:06;10.80;59.10
15359;DHT22;7779;49.596;11.070;2024-02-23T12:38:33;10.70;59.00
15359;DHT22;7779;49.596;11.070;2024-02-23T12:41:00;10.70;58.90
15359;DHT22;7779;49.596;11.070;2024-02-23T12:43:28;10.80;59.00
15359;DHT22;7779;49.596;11.070;2024-02-23T12:45:55;10.70;58.90
15359;DHT22;7779;49.596;11.070;2024-02-23T12:48:22;10.70;58.90
15359;DHT22;7779;49.596;11.070;2024-02-23T12:50:49;10.80;58.90
15359;DHT22;7779;49.596;11.070;2024-02-23T12:53:50;10.70;58.90
15359;DHT22;7779;49.596;11.070;2024-02-23T12:56:16;10.70;57.80
15359;DHT22;7779;49.596;11.070;2024-02-23T12:58:44;10.70;59.00
15359;DHT22;7779;49.596;11.070;2024-02-23T13:01:10;10.70;58.90
15359;DHT22;7779;49.596;11.070;2024-02-23T13:03:38;10.70;59.00
15359;DHT22;7779;49.596;11.070;2024-02-23T13:06:06;10.70;59.10
15359;DHT22;7779;49.596;11.070;2024-02-23T13:08:33;10.80;59.20
15359;DHT22;7779;49.596;11.070;2024-02-23T13:10:59;10.70;58.90
15359;DHT22;7779;49.596;11.070;2024-02-23T13:13:25;10.80;59.00
15359;DHT22;7779;49.596;11.070;2024-02-23T13:15:53;10.70;58.90
15359;DHT22;7779;49.596;11.070;2024-02-23T13:18:19;10.70;58.90
15359;DHT22;7779;49.596;11.070;2024-02-23T13:20:45;10.70;59.00
15359;DHT22;7779;49.596;11.070;2024-02-23T13:23:12;10.70;58.80
15359;DHT22;7779;49.596;11.070;2024-02-23T13:25:41;10.70;58.80
15359;DHT22;7779;49.596;11.070;2024-02-23T13:28:08;10.60;58.60
15359;DHT22;7779;49.596;11.070;2024-02-23T13:30:35;10.60;58.60
15359;DHT22;7779;49.596;11.070;2024-02-23T13:33:02;10.60;58.60
15359;DHT22;7779;49.596;11.070;2024-02-23T13:35:28;10.60;58.60
15359;DHT22;7779;49.596;11.070;2024-02-23T13:37:55;10.60;58.60
15359;DHT22;7779;49.596;11.070;2024-02-23T13:40:21;10.60;58.60
15359;DHT22;7779;49.596;11.070;2024-02-23T13:42:47;10.70;58.70
15359;DHT22;7779;49.596;11.070;2024-02-23T13:45:15;10.70;58.60
15359;DHT22;7779;49.596;11.070;2024-02-23T13:47:43;10.70;58.50
15359;DHT22;7779;49.596;11.070;2024-02-23T13:50:20;10.70;58.40
15359;DHT22;7779;49.596;11.070;2024-02-23T13:52:45;10.70;58.20
15359;DHT22;7779;49.596;11.070;2024-02-23T13:55:11;10.70;57.90
15359;DHT22;7779;49.596;11.070;2024-02-23T13:57:37;10.70;57.70
15359;DHT22;7779;49.596;11.070;2024-02-23T14:00:03;10.70;57.50
15359;DHT22;7779;49.596;11.070;2024-02-23T14:02:37;10.70;57.60
15359;DHT22;7779;49.596;11.070;2024-02-23T14:05:02;10.70;57.60
15359;DHT22;7779;49.596;11.070;2024-02-23T14:07:28;10.70;57.40
15359;DHT22;7779;49.596;11.070;2024-02-23T14:09:54;10.70;57.40
15359;DHT22;7779;49.596;11.070;2024-02-23T14:12:20;10.60;57.20
15359;DHT22;7779;49.596;11.070;2024-02-23T14:14:46;10.60;57.20
15359;DHT22;7779;49.596;11.070;2024-02-23T14:17:11;10.60;57.90
15359;DHT22;7779;49.596;11.070;2024-02-23T14:19:37;10.70;57.40
15359;DHT22;7779;49.596;11.070;2024-02-23T14:22:03;10.60;57.40
15359;DHT22;7779;49.596;11.070;2024-02-23T14:24:29;10.60;57.20
15359;DHT22;7779;49.596;11.070;2024-02-23T14:26:54;10.60;57.10
15359;DHT22;7779;49.596;11.070;2024-02-23T14:29:20;10.60;57.20
15359;DHT22;7779;49.596;11.070;2024-02-23T14:31:46;10.60;57.20
15359;DHT22;7779;49.596;11.070;2024-02-23T14:34:11;10.60;57.20
15359;DHT22;7779;49.596;11.070;2024-02-23T14:36:37;10.60;57.30
15359;DHT22;7779;49.596;11.070;2024-02-23T14:39:03;10.60;57.10
15359;DHT22;7779;49.596;11.070;2024-02-23T14:41:30;10.60;57.10
15359;DHT22;7779;49.596;11.070;2024-02-23T14:43:56;10.60;57.10
15359;DHT22;7779;49.596;11.070;2024-02-23T14:46:21;10.60;57.00
15359;DHT22;7779;49.596;11.070;2024-02-23T14:48:47;10.60;57.10
15359;DHT22;7779;49.596;11.070;2024-02-23T14:51:16;10.60;56.90
15359;DHT22;7779;49.596;11.070;2024-02-23T14:53:42;10.50;56.60
15359;DHT22;7779;49.596;11.070;2024-02-23T14:56:08;10.60;56.80
15359;DHT22;7779;49.596;11.070;2024-02-23T14:58:34;10.50;56.70
15359;DHT22;7779;49.596;11.070;2024-02-23T15:00:59;10.50;56.70
15359;DHT22;7779;49.596;11.070;2024-02-23T15:03:25;10.40;56.70
15359;DHT22;7779;49.596;11.070;2024-02-23T15:05:51;10.40;56.60
15359;DHT22;7779;49.596;11.070;2024-02-23T15:08:17;10.40;56.70
15359;DHT22;7779;49.596;11.070;2024-02-23T15:10:43;10.40;57.00
15359;DHT22;7779;49.596;11.070;2024-02-23T15:13:08;10.40;56.80
15359;DHT22;7779;49.596;11.070;2024-02-23T15:15:34;10.30;56.70
15359;DHT22;7779;49.596;11.070;2024-02-23T15:18:04;10.30;56.80
15359;DHT22;7779;49.596;11.070;2024-02-23T15:20:31;10.20;56.80
15359;DHT22;7779;49.596;11.070;2024-02-23T15:22:57;10.20;56.80
15359;DHT22;7779;49.596;11.070;2024-02-23T15:25:23;10.20;56.90
15359;DHT22;7779;49.596;11.070;2024-02-23T15:27:49;10.10;56.80
15359;DHT22;7779;49.596;11.070;2024-02-23T15:30:15;10.10;57.50
15359;DHT22;7779;49.596;11.070;2024-02-23T15:32:41;10.10;56.90
15359;DHT22;7779;49.596;11.070;2024-02-23T15:35:07;10.00;56.80
15359;DHT22;7779;49.596;11.070;2024-02-23T15:37:33;9.90;57.70